Pagrindinis puslapis
METAR-TAF:

METAR-TAF

Oro uostai :

Maiduguris, Nigerija

platuma: 11-51N, ilguma: 013-05E, Aukštis: 354 m

METAR: trūkstamas

Laikas: 00:04 (23:04 UTC)

Prognozė

Ataskaita buvo paskelbta 6 valandos ir 4 minutes, ne 17:00 UTC
Prognozė galioja nuo 24 metu 18 UTC su 25 metu 24 UTC
Vėjas 5 kt iš Rytų
Matomumas 10 km arba daugiau
Mažai debesys ne aukštis 1300 ft
Tapsmas
nuo 24 metu 23 UTC su 25 metu 01 UTC
Vėjas 8 kt iš Vakarų

TAF: DNMA 241700Z 2418/2524 09005KT 9999 FEW013 BECMG 2423/2501 26008KT

Orai ataskaitas ir orų prognozės (METAR, TAF).

turimą stotys yra geltonos ir raudonos taškus žemėlapyje.

Perkelti pele per norėdami pamatyti stoties vardą.

Tada spustelėkite, norėdami matyti oro stebėjimo ir prognozės.

Norėdami pakeisti žemėlapį: spustelėkite ant žalios mygtukų su juodo kryžiaus žemyn,; žalią mygtuką su brūkšneliu, jei norite nutolinti; arba žalių rodyklių gretimoms žemėlapius.


METAR-TAF: